Time;durP1;ratioP1;P1;durP2;ratioP2;P2;SDS_P1;SDS_P2;PMS_P1;PMS_P2;Temp;Humidity;BMP_temperature;BMP_pressure;BME280_temperature;BME280_humidity;BME280_pressure;Samples;Min_cycle;Max_cycle;Signal;HPM_P1;HPM_P2
2022/06/22 00:01:01;;;;;;;1.20;0.80;;;25.70;61.10;;;;;;5016201;28;20866;-85
2022/06/22 00:03:28;;;;;;;1.10;1.00;;;25.70;61.10;;;;;;5016101;28;20522;-85
2022/06/22 00:05:55;;;;;;;1.10;0.90;;;25.70;61.10;;;;;;5015609;28;20443;-85
2022/06/22 00:08:31;;;;;;;1.10;0.80;;;25.70;61.10;;;;;;5015936;28;20594;-84
2022/06/22 00:11:03;;;;;;;1.20;0.90;;;25.70;61.00;;;;;;5016086;28;20439;-84
2022/06/22 00:13:31;;;;;;;1.00;0.80;;;25.70;61.10;;;;;;5015951;28;20446;-84
2022/06/22 00:16:01;;;;;;;1.17;1.07;;;25.70;61.10;;;;;;5015958;28;20807;-85
2022/06/22 00:18:32;;;;;;;1.00;0.80;;;25.70;61.00;;;;;;5015733;28;20439;-91
2022/06/22 00:21:01;;;;;;;1.00;0.80;;;25.70;61.10;;;;;;5016309;28;20518;-85
2022/06/22 00:23:37;;;;;;;2.60;0.87;;;25.70;61.10;;;;;;5015853;28;20534;-85
2022/06/22 00:26:19;;;;;;;1.07;0.83;;;25.70;61.10;;;;;;5015775;28;20981;-85
2022/06/22 00:28:56;;;;;;;1.00;0.90;;;25.70;61.20;;;;;;5015850;28;20493;-85
2022/06/22 00:31:31;;;;;;;1.00;0.87;;;25.70;61.20;;;;;;5015676;28;20523;-85
2022/06/22 00:34:13;;;;;;;1.00;0.80;;;25.70;61.10;;;;;;5015629;28;20526;-85
2022/06/22 00:36:46;;;;;;;1.10;1.00;;;25.70;61.10;;;;;;5015599;28;20439;-85
2022/06/22 00:39:24;;;;;;;1.20;0.90;;;25.70;61.20;;;;;;5015216;28;20443;-85
2022/06/22 00:41:56;;;;;;;1.03;0.93;;;25.70;61.10;;;;;;5015483;28;20439;-86
2022/06/22 00:44:26;;;;;;;1.43;1.07;;;25.70;61.20;;;;;;5015440;28;20443;-85
2022/06/22 00:47:00;;;;;;;1.03;0.90;;;25.70;61.10;;;;;;5015284;28;20444;-83
2022/06/22 00:49:28;;;;;;;1.10;0.80;;;25.70;61.20;;;;;;5015263;28;20514;-84
2022/06/22 00:52:00;;;;;;;1.17;1.07;;;25.70;61.20;;;;;;5015052;28;20450;-85
2022/06/22 00:54:33;;;;;;;1.10;0.90;;;25.70;61.10;;;;;;5015338;28;20444;-84
2022/06/22 00:57:07;;;;;;;1.23;1.13;;;25.70;61.10;;;;;;5015412;28;20772;-83
2022/06/22 00:59:42;;;;;;;1.20;1.10;;;25.70;61.10;;;;;;5015125;28;20450;-85
2022/06/22 01:02:20;;;;;;;1.10;0.90;;;25.70;61.20;;;;;;5014870;28;20450;-85
2022/06/22 01:04:52;;;;;;;1.20;1.10;;;25.70;61.10;;;;;;5014800;28;20444;-85
2022/06/22 01:07:25;;;;;;;1.00;0.90;;;25.70;61.10;;;;;;5015247;28;20530;-86
2022/06/22 01:10:01;;;;;;;1.10;0.80;;;25.70;61.20;;;;;;5015065;28;20486;-85
2022/06/22 01:12:35;;;;;;;1.37;1.27;;;25.70;61.10;;;;;;5014829;28;20535;-85
2022/06/22 01:15:23;;;;;;;1.10;1.00;;;25.70;61.20;;;;;;5017722;28;20470;-84
2022/06/22 01:17:55;;;;;;;1.23;0.93;;;25.70;61.10;;;;;;5015102;28;20632;-84
2022/06/22 01:20:34;;;;;;;1.17;1.07;;;25.70;61.20;;;;;;5014819;28;20440;-90
2022/06/22 01:23:43;;;;;;;1.00;0.80;;;25.70;61.10;;;;;;5014796;28;21034;-84
2022/06/22 01:26:29;;;;;;;1.10;0.90;;;25.70;61.10;;;;;;5014378;28;21011;-84
2022/06/22 01:29:06;;;;;;;1.00;0.90;;;25.70;61.30;;;;;;5015490;28;20487;-85
2022/06/22 01:31:35;;;;;;;1.10;1.00;;;25.60;61.20;;;;;;5015450;28;20461;-85
2022/06/22 01:34:02;;;;;;;1.23;0.90;;;25.60;61.20;;;;;;5014867;28;20465;-84
2022/06/22 01:36:34;;;;;;;0.90;0.80;;;25.60;61.20;;;;;;5014525;28;20530;-84
2022/06/22 01:39:03;;;;;;;1.20;1.10;;;25.60;61.10;;;;;;5014342;28;20439;-84
2022/06/22 01:41:38;;;;;;;1.00;0.80;;;25.60;61.20;;;;;;5014359;28;20530;-84
2022/06/22 01:44:12;;;;;;;1.00;0.80;;;25.60;61.10;;;;;;5014828;28;20538;-91
2022/06/22 01:46:48;;;;;;;1.00;0.70;;;25.60;61.10;;;;;;5014231;28;20459;-84
2022/06/22 01:49:20;;;;;;;1.10;0.90;;;25.60;61.10;;;;;;5014122;28;20483;-84
2022/06/22 01:51:51;;;;;;;1.00;0.87;;;25.60;61.10;;;;;;5014020;28;20443;-84
2022/06/22 01:54:24;;;;;;;1.00;0.80;;;25.60;61.10;;;;;;5014047;28;20451;-84
2022/06/22 01:56:57;;;;;;;1.47;1.37;;;25.60;61.10;;;;;;5013734;28;20531;-84
2022/06/22 01:59:37;;;;;;;1.10;1.00;;;25.60;61.10;;;;;;5014115;28;20446;-84
2022/06/22 02:02:09;;;;;;;1.00;0.80;;;25.60;61.10;;;;;;5013757;28;20530;-84
2022/06/22 02:04:41;;;;;;;1.10;1.00;;;25.60;61.10;;;;;;5014037;28;20440;-84
2022/06/22 02:10:12;;;;;;;1.47;1.03;;;25.60;61.10;;;;;;5013990;28;21052;-84
2022/06/22 02:12:44;;;;;;;1.07;0.80;;;25.60;61.20;;;;;;5013938;28;21005;-84
2022/06/22 02:15:22;;;;;;;1.00;0.90;;;25.60;61.20;;;;;;5014562;28;20554;-84
2022/06/22 02:17:50;;;;;;;1.10;0.83;;;25.60;61.10;;;;;;5013704;28;20869;-85
2022/06/22 02:20:33;;;;;;;1.00;0.90;;;25.60;61.20;;;;;;5013526;28;20471;-91
2022/06/22 02:23:30;;;;;;;1.00;0.73;;;25.60;61.20;;;;;;5013665;28;20439;-89
2022/06/22 02:26:12;;;;;;;1.00;0.80;;;25.60;62.00;;;;;;5013324;28;20446;-83
2022/06/22 02:28:42;;;;;;;1.43;0.90;;;25.60;61.20;;;;;;5013607;28;20533;-91
2022/06/22 02:31:10;;;;;;;1.03;0.80;;;25.50;61.10;;;;;;5013556;28;20894;-84
2022/06/22 02:36:46;;;;;;;1.40;1.00;;;25.60;61.10;;;;;;5013863;28;20426;-84
2022/06/22 02:39:15;;;;;;;1.00;0.80;;;25.60;61.30;;;;;;5013541;28;20447;-84
2022/06/22 02:47:25;;;;;;;1.07;0.80;;;25.60;61.20;;;;;;5013340;28;20510;-84
2022/06/22 02:49:57;;;;;;;2.17;0.80;;;25.50;61.10;;;;;;5013568;28;20487;-85
2022/06/22 02:52:28;;;;;;;1.10;0.90;;;25.60;61.20;;;;;;5013407;28;20456;-84
2022/06/22 02:55:00;;;;;;;1.90;1.10;;;25.50;62.00;;;;;;5013439;28;20538;-84
2022/06/22 02:57:37;;;;;;;1.10;0.80;;;25.60;61.20;;;;;;5013351;28;20451;-84
2022/06/22 03:00:05;;;;;;;1.30;1.00;;;25.60;61.20;;;;;;5013365;28;20531;-85
2022/06/22 03:02:34;;;;;;;1.10;0.87;;;25.60;61.20;;;;;;5013487;28;20856;-85
2022/06/22 03:05:01;;;;;;;0.90;0.70;;;25.60;61.20;;;;;;5013294;28;20475;-84
2022/06/22 03:07:30;;;;;;;1.00;0.80;;;25.50;61.10;;;;;;5013318;28;20498;-84
2022/06/22 03:09:58;;;;;;;1.00;0.80;;;25.60;61.20;;;;;;5013161;28;21049;-84
2022/06/22 03:12:24;;;;;;;1.30;0.80;;;25.60;61.20;;;;;;5013407;28;20538;-92
2022/06/22 03:14:55;;;;;;;1.10;1.00;;;25.60;61.20;;;;;;5013227;28;20547;-84
2022/06/22 03:17:30;;;;;;;1.00;0.90;;;25.60;61.20;;;;;;5013001;28;20530;-84
2022/06/22 03:20:03;;;;;;;1.00;0.80;;;25.60;61.20;;;;;;5013205;28;20439;-91
2022/06/22 03:22:33;;;;;;;1.00;0.80;;;25.60;61.20;;;;;;5013113;28;21013;-85
2022/06/22 03:25:05;;;;;;;1.00;0.90;;;25.60;61.20;;;;;;5013261;28;20519;-84
2022/06/22 03:27:37;;;;;;;1.00;0.80;;;25.60;61.20;;;;;;5012809;28;20511;-84
2022/06/22 03:30:10;;;;;;;1.20;0.90;;;25.50;61.10;;;;;;5013010;28;20608;-84
2022/06/22 03:32:43;;;;;;;1.17;0.90;;;25.60;61.20;;;;;;5012953;28;20450;-85
2022/06/22 03:35:16;;;;;;;1.10;0.97;;;25.60;61.20;;;;;;5013069;28;20452;-85
2022/06/22 03:37:48;;;;;;;1.00;0.80;;;25.50;61.20;;;;;;5012988;28;20519;-85
2022/06/22 03:40:21;;;;;;;1.00;0.80;;;25.50;61.10;;;;;;5012976;28;20448;-85
2022/06/22 03:42:52;;;;;;;1.10;0.90;;;25.50;61.10;;;;;;5015802;28;20793;-85
2022/06/22 03:45:23;;;;;;;1.13;0.90;;;25.50;61.20;;;;;;5016446;28;20549;-84
2022/06/22 03:47:57;;;;;;;1.20;1.00;;;25.50;61.10;;;;;;5016470;28;20443;-84
2022/06/22 03:50:39;;;;;;;1.10;0.80;;;25.50;61.10;;;;;;5019392;28;20494;-83
2022/06/22 03:53:13;;;;;;;1.70;0.87;;;25.60;61.20;;;;;;5019691;28;20515;-84
2022/06/22 03:55:44;;;;;;;1.00;0.80;;;25.50;61.10;;;;;;5019950;28;20439;-82
2022/06/22 03:58:30;;;;;;;1.10;0.90;;;25.50;61.10;;;;;;5016513;28;20522;-84
2022/06/22 04:00:58;;;;;;;1.13;0.97;;;25.50;61.10;;;;;;5016336;28;21001;-84
2022/06/22 04:03:26;;;;;;;1.13;0.80;;;25.50;61.20;;;;;;5016369;28;20444;-84
2022/06/22 04:05:57;;;;;;;1.07;0.90;;;25.50;61.20;;;;;;5016309;28;20447;-84
2022/06/22 04:08:27;;;;;;;1.00;0.80;;;25.50;61.10;;;;;;5019236;28;20471;-83
2022/06/22 04:10:58;;;;;;;1.17;1.07;;;25.50;61.20;;;;;;5018710;28;20483;-83
2022/06/22 04:13:32;;;;;;;1.10;1.00;;;25.50;61.20;;;;;;5016136;28;20447;-84
2022/06/22 04:16:05;;;;;;;1.40;0.90;;;25.50;61.10;;;;;;5015919;28;20498;-84
2022/06/22 04:18:38;;;;;;;1.17;1.07;;;25.50;61.10;;;;;;5015761;28;20514;-85
2022/06/22 04:21:09;;;;;;;1.00;0.87;;;25.50;61.20;;;;;;5015946;28;20531;-91
2022/06/22 04:23:41;;;;;;;2.17;0.90;;;25.50;61.20;;;;;;5015634;28;20454;-84
2022/06/22 04:26:15;;;;;;;1.00;0.83;;;25.50;61.10;;;;;;5015602;28;20843;-84
2022/06/22 04:28:46;;;;;;;1.10;1.00;;;25.50;61.20;;;;;;5016025;28;20471;-84
2022/06/22 04:31:18;;;;;;;1.00;0.90;;;25.50;61.30;;;;;;5015724;28;21041;-89
2022/06/22 04:33:48;;;;;;;1.00;0.80;;;25.50;61.20;;;;;;5015585;28;20454;-84
2022/06/22 04:36:22;;;;;;;1.00;0.80;;;25.50;61.20;;;;;;5015416;28;20531;-85
2022/06/22 04:38:54;;;;;;;1.20;1.00;;;25.50;61.20;;;;;;5015479;28;20494;-84
2022/06/22 04:41:28;;;;;;;1.10;1.00;;;25.50;61.20;;;;;;5015575;28;20891;-85
2022/06/22 04:43:56;;;;;;;1.10;0.90;;;25.50;61.20;;;;;;5015382;28;20471;-85
2022/06/22 04:46:28;;;;;;;1.03;0.93;;;25.50;61.20;;;;;;5015008;28;20496;-84
2022/06/22 04:48:58;;;;;;;1.10;1.00;;;25.50;61.30;;;;;;5015384;28;20475;-86
2022/06/22 04:51:33;;;;;;;1.03;0.93;;;25.50;61.30;;;;;;5015307;28;20488;-85
2022/06/22 04:54:06;;;;;;;1.23;0.90;;;25.50;61.20;;;;;;5014256;28;20443;-85
2022/06/22 04:56:36;;;;;;;1.00;0.90;;;25.50;61.20;;;;;;5015044;28;20502;-85
2022/06/22 04:59:05;;;;;;;1.03;0.90;;;25.50;61.30;;;;;;5015185;28;20523;-84
2022/06/22 05:01:36;;;;;;;1.20;0.93;;;25.50;61.30;;;;;;5015261;28;20815;-91
2022/06/22 05:04:07;;;;;;;1.00;0.90;;;25.50;61.30;;;;;;5015124;28;20476;-86
2022/06/22 05:06:42;;;;;;;1.30;0.90;;;25.50;61.30;;;;;;5014966;28;20519;-86
2022/06/22 05:09:14;;;;;;;1.00;0.83;;;25.50;62.20;;;;;;5014763;28;20479;-85
2022/06/22 05:11:44;;;;;;;1.03;0.93;;;25.50;61.40;;;;;;5014908;28;20482;-93
2022/06/22 05:14:17;;;;;;;1.30;0.90;;;25.50;61.40;;;;;;5014491;28;20535;-84
2022/06/22 05:16:47;;;;;;;1.20;0.90;;;25.50;61.40;;;;;;5013910;28;20532;-85
2022/06/22 05:19:15;;;;;;;1.00;0.90;;;25.50;61.50;;;;;;5013547;28;20469;-89
2022/06/22 05:21:45;;;;;;;1.00;0.80;;;25.50;61.40;;;;;;5014611;28;20522;-85
2022/06/22 05:24:19;;;;;;;1.00;0.90;;;25.50;61.40;;;;;;5014626;28;20450;-84
2022/06/22 05:26:49;;;;;;;1.20;0.90;;;25.50;61.40;;;;;;5014525;28;20558;-85
2022/06/22 05:29:19;;;;;;;1.00;0.80;;;25.50;61.40;;;;;;5014493;28;20447;-85
2022/06/22 05:31:50;;;;;;;1.00;0.87;;;25.50;61.40;;;;;;5014658;28;20523;-84
2022/06/22 05:34:22;;;;;;;1.00;0.90;;;25.50;61.40;;;;;;5014661;28;20538;-85
2022/06/22 05:36:57;;;;;;;1.10;0.90;;;25.50;61.40;;;;;;5014290;28;20518;-84
2022/06/22 05:39:24;;;;;;;1.00;0.87;;;25.50;61.40;;;;;;5014442;28;20509;-85
2022/06/22 05:41:53;;;;;;;1.10;1.00;;;25.50;61.40;;;;;;5014131;28;20467;-84
2022/06/22 05:44:22;;;;;;;1.00;0.80;;;25.50;61.50;;;;;;5014271;28;20469;-84
2022/06/22 05:46:52;;;;;;;1.20;1.10;;;25.50;61.40;;;;;;5014070;28;20438;-84
2022/06/22 05:49:21;;;;;;;1.10;0.97;;;25.50;61.40;;;;;;5014049;28;20498;-84
2022/06/22 05:51:56;;;;;;;1.10;0.93;;;25.50;61.40;;;;;;5014180;28;20446;-90
2022/06/22 05:54:28;;;;;;;1.13;1.03;;;25.50;61.40;;;;;;5014514;28;20435;-84
2022/06/22 05:57:14;;;;;;;1.03;0.80;;;25.50;62.30;;;;;;5014040;28;20467;-84
2022/06/22 05:59:46;;;;;;;1.00;0.80;;;25.50;61.40;;;;;;5014279;28;20535;-84
2022/06/22 06:02:29;;;;;;;1.10;1.00;;;25.50;61.50;;;;;;5014067;28;20440;-87
2022/06/22 06:05:07;;;;;;;0.90;0.80;;;25.50;61.40;;;;;;5013688;28;20523;-85
2022/06/22 06:07:46;;;;;;;1.00;0.80;;;25.50;61.50;;;;;;5013866;28;20534;-91
2022/06/22 06:10:20;;;;;;;1.03;0.93;;;25.50;61.50;;;;;;5013799;28;20489;-91
2022/06/22 06:12:56;;;;;;;1.03;0.83;;;25.50;61.50;;;;;;5013702;28;20931;-84
2022/06/22 06:15:24;;;;;;;1.30;1.07;;;25.50;61.50;;;;;;5013554;28;20550;-84
2022/06/22 06:17:54;;;;;;;1.10;0.90;;;25.50;61.50;;;;;;5013885;28;20548;-84
2022/06/22 06:20:25;;;;;;;1.10;0.80;;;25.50;61.50;;;;;;5013753;28;20458;-84
2022/06/22 06:22:57;;;;;;;1.00;0.80;;;25.50;61.50;;;;;;5013784;28;20850;-84
2022/06/22 06:28:27;;;;;;;1.00;0.83;;;25.50;61.50;;;;;;5014290;28;20514;-84
2022/06/22 06:31:01;;;;;;;1.10;0.90;;;25.50;61.50;;;;;;5013780;28;20486;-84
2022/06/22 06:33:34;;;;;;;0.90;0.80;;;25.50;61.60;;;;;;5013783;28;20861;-85
2022/06/22 06:36:07;;;;;;;1.00;0.90;;;25.50;61.50;;;;;;5014143;28;20446;-84
2022/06/22 06:38:38;;;;;;;1.00;0.80;;;25.50;61.60;;;;;;5013915;28;20846;-89
2022/06/22 06:41:10;;;;;;;1.10;1.00;;;25.50;61.50;;;;;;5013765;28;20538;-84
2022/06/22 06:43:43;;;;;;;1.30;1.20;;;25.50;61.50;;;;;;5013484;28;20535;-84
2022/06/22 06:46:16;;;;;;;1.67;1.20;;;25.50;61.50;;;;;;5013448;28;21057;-84
2022/06/22 06:48:45;;;;;;;1.00;0.80;;;25.50;61.50;;;;;;5013473;28;20538;-84
2022/06/22 06:51:15;;;;;;;1.30;1.20;;;25.50;61.50;;;;;;5013421;28;20487;-84
2022/06/22 06:53:49;;;;;;;1.07;0.93;;;25.50;61.50;;;;;;5013373;28;20452;-85
2022/06/22 06:56:21;;;;;;;1.10;1.00;;;25.50;61.50;;;;;;5013538;28;20531;-85
2022/06/22 06:58:54;;;;;;;1.00;0.90;;;25.50;61.50;;;;;;5013613;28;20478;-85
2022/06/22 07:01:24;;;;;;;1.10;1.00;;;25.50;61.40;;;;;;5013692;28;20444;-85
2022/06/22 07:03:56;;;;;;;1.03;0.90;;;25.50;61.50;;;;;;5013534;28;20934;-85
2022/06/22 07:06:24;;;;;;;1.00;0.90;;;25.50;61.50;;;;;;5013438;28;20560;-90
2022/06/22 07:08:57;;;;;;;1.20;1.07;;;25.50;61.40;;;;;;5013208;28;20467;-85
2022/06/22 07:11:32;;;;;;;1.30;1.00;;;25.50;61.40;;;;;;5013138;28;20579;-85
2022/06/22 07:14:05;;;;;;;1.07;0.70;;;25.50;61.40;;;;;;5013183;28;20451;-84
2022/06/22 07:16:32;;;;;;;1.10;0.90;;;25.50;61.40;;;;;;5014370;28;20470;-84
2022/06/22 07:19:04;;;;;;;1.03;0.93;;;25.50;61.40;;;;;;5017017;28;20440;-84
2022/06/22 07:21:39;;;;;;;1.10;0.97;;;25.50;61.40;;;;;;5017013;28;20530;-84
2022/06/22 07:24:14;;;;;;;1.33;1.00;;;25.50;61.40;;;;;;5017183;28;20926;-84
2022/06/22 07:26:50;;;;;;;1.20;1.00;;;25.50;61.40;;;;;;5016947;28;20554;-89
2022/06/22 07:29:24;;;;;;;1.00;0.90;;;25.50;61.50;;;;;;5017165;28;20522;-84
2022/06/22 07:32:05;;;;;;;1.20;1.10;;;25.50;61.40;;;;;;5016751;28;20884;-89
2022/06/22 07:34:42;;;;;;;1.20;1.00;;;25.50;61.50;;;;;;5016749;28;20543;-84
2022/06/22 07:37:18;;;;;;;1.00;0.90;;;25.50;61.50;;;;;;5016574;28;20540;-85
2022/06/22 07:39:52;;;;;;;1.10;0.90;;;25.50;61.60;;;;;;4999230;28;20786;-89
2022/06/22 07:42:19;;;;;;;1.10;1.00;;;25.50;61.60;;;;;;5016613;28;20530;-84
2022/06/22 07:44:47;;;;;;;1.30;1.00;;;25.50;61.60;;;;;;5016616;28;20529;-84
2022/06/22 07:47:21;;;;;;;1.20;1.10;;;25.50;61.60;;;;;;5016589;28;20442;-84
2022/06/22 07:49:53;;;;;;;1.00;0.90;;;25.50;62.50;;;;;;5016638;28;20440;-89
2022/06/22 07:52:25;;;;;;;0.90;0.70;;;25.50;61.50;;;;;;5016615;28;20960;-89
2022/06/22 07:55:00;;;;;;;1.10;0.97;;;25.50;62.40;;;;;;5016448;28;20435;-84
2022/06/22 07:57:34;;;;;;;1.00;0.90;;;25.50;61.50;;;;;;5016237;28;20474;-89
2022/06/22 08:00:06;;;;;;;1.20;1.03;;;25.50;61.50;;;;;;5016886;28;20858;-89
2022/06/22 08:02:51;;;;;;;1.00;0.90;;;25.50;61.50;;;;;;5016395;28;20467;-83
2022/06/22 08:05:22;;;;;;;1.10;1.00;;;25.50;61.50;;;;;;5016223;28;20530;-83
2022/06/22 08:07:54;;;;;;;1.20;1.00;;;25.50;61.60;;;;;;5016290;28;20534;-85
2022/06/22 08:10:26;;;;;;;1.10;1.00;;;25.50;61.60;;;;;;5016103;28;21032;-89
2022/06/22 08:13:00;;;;;;;1.17;0.97;;;25.50;61.60;;;;;;5016812;28;20447;-84
2022/06/22 08:15:31;;;;;;;1.30;1.10;;;25.50;61.50;;;;;;5016162;28;20663;-85
2022/06/22 08:18:01;;;;;;;1.10;1.00;;;25.50;61.50;;;;;;5015988;28;20869;-84
2022/06/22 08:20:31;;;;;;;1.10;1.00;;;25.50;61.50;;;;;;5016597;28;20462;-84
2022/06/22 08:23:01;;;;;;;1.00;0.90;;;25.50;61.50;;;;;;5016066;28;20453;-84
2022/06/22 08:25:30;;;;;;;1.07;0.80;;;25.50;61.50;;;;;;5015942;28;20493;-84
2022/06/22 08:27:58;;;;;;;1.00;0.90;;;25.50;61.40;;;;;;5015314;28;20831;-83
2022/06/22 08:30:25;;;;;;;1.10;1.00;;;25.50;61.40;;;;;;5017771;28;20573;-88
2022/06/22 08:32:58;;;;;;;1.13;1.03;;;25.50;61.40;;;;;;5019570;28;20448;-84
2022/06/22 08:35:28;;;;;;;1.00;0.80;;;25.50;61.40;;;;;;5023645;28;20448;-81
2022/06/22 08:38:00;;;;;;;1.20;1.10;;;25.50;61.50;;;;;;5019790;28;20440;-83
2022/06/22 08:40:38;;;;;;;1.20;1.10;;;25.50;61.50;;;;;;5015919;28;20442;-84
2022/06/22 08:43:13;;;;;;;1.43;0.90;;;25.60;61.60;;;;;;5015776;28;20454;-85
2022/06/22 08:46:23;;;;;;;1.20;0.90;;;25.50;61.50;;;;;;5015423;28;20575;-84
2022/06/22 08:49:12;;;;;;;1.20;1.10;;;25.60;61.50;;;;;;4987312;28;20534;-89
2022/06/22 08:51:55;;;;;;;1.07;0.90;;;25.60;61.60;;;;;;5015379;28;20487;-84
2022/06/22 08:54:46;;;;;;;1.20;1.10;;;25.60;61.60;;;;;;5015475;28;20450;-85
2022/06/22 08:57:27;;;;;;;1.10;1.00;;;25.50;61.50;;;;;;5015034;28;20480;-84
2022/06/22 09:00:24;;;;;;;1.10;1.00;;;25.60;61.60;;;;;;5015077;28;20489;-85
2022/06/22 09:03:16;;;;;;;1.60;1.10;;;25.60;61.50;;;;;;5015246;28;20803;-84
2022/06/22 09:06:06;;;;;;;1.47;0.90;;;25.50;61.50;;;;;;5011662;28;20474;-89
2022/06/22 09:09:26;;;;;;;1.20;0.93;;;25.60;61.50;;;;;;5014877;28;20961;-85
2022/06/22 09:12:06;;;;;;;1.00;0.90;;;25.50;61.50;;;;;;4990595;28;20541;-84
2022/06/22 09:14:59;;;;;;;1.00;0.83;;;25.50;61.60;;;;;;5014952;28;20464;-90
2022/06/22 09:17:59;;;;;;;1.03;0.90;;;25.60;61.60;;;;;;5014880;28;20463;-84
2022/06/22 09:20:40;;;;;;;1.10;1.00;;;25.60;61.60;;;;;;5014398;28;20474;-85
2022/06/22 09:23:21;;;;;;;1.63;1.00;;;25.50;61.50;;;;;;5014736;28;20525;-90
2022/06/22 09:25:53;;;;;;;1.37;0.90;;;25.60;62.50;;;;;;5014648;28;20448;-85
2022/06/22 09:28:27;;;;;;;1.10;1.00;;;25.60;61.60;;;;;;5014719;28;20538;-85
2022/06/22 09:31:19;;;;;;;1.20;1.10;;;25.60;61.60;;;;;;5014624;28;20892;-88
2022/06/22 09:34:14;;;;;;;1.00;0.90;;;25.60;61.60;;;;;;5014508;28;20463;-85
2022/06/22 09:37:29;;;;;;;1.20;1.00;;;25.60;61.50;;;;;;5014224;28;20989;-84
2022/06/22 09:40:26;;;;;;;1.00;0.80;;;25.60;61.50;;;;;;5013905;28;20444;-90
2022/06/22 09:43:19;;;;;;;1.20;1.10;;;25.60;61.60;;;;;;5014416;28;20527;-84
2022/06/22 09:46:01;;;;;;;1.20;1.00;;;25.60;61.60;;;;;;5014030;28;20535;-84
2022/06/22 09:48:52;;;;;;;1.30;1.00;;;25.60;61.70;;;;;;5014254;28;20526;-90
2022/06/22 09:51:35;;;;;;;1.00;0.90;;;25.60;61.60;;;;;;4997338;28;20488;-89
2022/06/22 09:57:43;;;;;;;1.20;0.93;;;25.60;61.60;;;;;;5014123;28;20427;-84
2022/06/22 10:00:14;;;;;;;1.10;0.93;;;25.60;61.80;;;;;;5014213;28;20479;-85
2022/06/22 10:03:16;;;;;;;1.00;0.90;;;25.60;61.70;;;;;;5014484;28;20454;-91
2022/06/22 10:06:27;;;;;;;1.20;1.10;;;25.60;61.60;;;;;;5013868;28;20435;-84
2022/06/22 10:09:26;;;;;;;1.30;0.87;;;25.60;61.60;;;;;;4953435;29;20473;-84
2022/06/22 10:12:02;;;;;;;1.60;1.30;;;25.60;61.70;;;;;;4953413;29;20545;-84
2022/06/22 10:15:02;;;;;;;1.27;1.10;;;25.60;61.80;;;;;;4996657;28;20515;-85
2022/06/22 10:18:01;;;;;;;1.10;0.93;;;25.60;61.70;;;;;;5013643;28;20440;-84
2022/06/22 10:20:40;;;;;;;1.10;1.00;;;25.60;61.70;;;;;;5013943;28;20489;-87
2022/06/22 10:23:23;;;;;;;1.10;1.00;;;25.60;61.70;;;;;;5013725;28;20452;-84
2022/06/22 10:26:10;;;;;;;1.30;0.93;;;25.60;61.60;;;;;;5013793;28;20439;-85
2022/06/22 10:28:58;;;;;;;1.40;0.93;;;25.60;61.60;;;;;;5013692;28;20439;-91
2022/06/22 10:31:38;;;;;;;1.20;0.90;;;25.60;61.60;;;;;;5013345;28;20990;-88
2022/06/22 10:34:21;;;;;;;1.60;1.20;;;25.60;61.70;;;;;;5013426;28;20534;-85
2022/06/22 10:37:07;;;;;;;1.10;0.93;;;25.60;61.70;;;;;;5013397;28;20444;-84
2022/06/22 10:40:03;;;;;;;1.20;1.10;;;25.60;61.60;;;;;;5013396;28;20451;-84
2022/06/22 10:45:43;;;;;;;1.23;1.10;;;25.60;61.60;;;;;;5013340;28;20451;-84
2022/06/22 10:48:42;;;;;;;1.40;1.17;;;25.60;61.70;;;;;;5013404;28;20457;-84
2022/06/22 10:51:19;;;;;;;1.07;0.97;;;25.60;62.00;;;;;;5016011;28;20475;-84
2022/06/22 10:54:14;;;;;;;1.13;1.03;;;25.60;61.80;;;;;;5017353;28;20510;-84
2022/06/22 10:57:06;;;;;;;0.97;0.83;;;25.60;61.60;;;;;;5017401;28;20444;-83
2022/06/22 11:00:14;;;;;;;1.20;1.10;;;25.60;61.70;;;;;;5015314;28;20451;-84
2022/06/22 11:03:17;;;;;;;0.90;0.80;;;25.60;61.60;;;;;;5013182;28;20451;-85
2022/06/22 11:06:01;;;;;;;1.10;0.90;;;25.60;61.70;;;;;;5017224;28;20486;-85
2022/06/22 11:08:52;;;;;;;1.10;0.90;;;25.60;61.80;;;;;;5017131;28;20442;-85
2022/06/22 11:11:37;;;;;;;0.90;0.80;;;25.60;61.70;;;;;;5017077;28;20904;-84
2022/06/22 11:14:45;;;;;;;2.40;1.13;;;25.60;61.80;;;;;;5016983;28;20451;-88
2022/06/22 11:17:39;;;;;;;1.30;1.07;;;25.60;61.70;;;;;;5016742;28;20501;-90
2022/06/22 11:20:32;;;;;;;1.73;0.90;;;25.60;61.80;;;;;;5017070;28;20497;-85
2022/06/22 11:23:05;;;;;;;1.53;1.10;;;25.60;61.70;;;;;;5017054;28;20480;-85
2022/06/22 11:32:28;;;;;;;0.90;0.80;;;25.60;61.80;;;;;;5016814;28;20493;-85
2022/06/22 11:35:17;;;;;;;1.00;0.90;;;25.60;61.90;;;;;;5016656;28;20451;-85
2022/06/22 11:37:55;;;;;;;1.00;0.80;;;25.60;61.90;;;;;;5013432;28;20448;-85
2022/06/22 11:40:53;;;;;;;1.17;0.90;;;25.60;61.90;;;;;;5016554;28;20443;-90
2022/06/22 11:43:54;;;;;;;1.70;1.00;;;25.60;61.80;;;;;;5016606;28;20534;-85
2022/06/22 11:46:29;;;;;;;1.43;1.33;;;25.60;61.80;;;;;;5014006;28;20556;-84
2022/06/22 11:49:31;;;;;;;1.00;0.90;;;25.60;61.80;;;;;;5016419;28;20919;-86
2022/06/22 11:52:25;;;;;;;1.10;0.97;;;25.60;61.70;;;;;;5016272;28;20556;-84
2022/06/22 11:54:59;;;;;;;0.97;0.87;;;25.60;61.80;;;;;;5016194;28;20447;-84
2022/06/22 11:58:02;;;;;;;1.00;0.90;;;25.60;61.90;;;;;;5016191;28;20444;-84
2022/06/22 12:00:40;;;;;;;1.20;0.83;;;25.60;61.80;;;;;;5003461;28;20454;-86
2022/06/22 12:03:46;;;;;;;1.00;0.90;;;25.60;61.90;;;;;;5015607;28;20439;-84
2022/06/22 12:06:33;;;;;;;1.13;1.03;;;25.60;61.80;;;;;;5016317;28;20796;-85
2022/06/22 12:09:17;;;;;;;1.00;0.90;;;25.60;61.90;;;;;;5016257;28;20447;-84
2022/06/22 12:11:56;;;;;;;1.00;0.90;;;25.60;61.90;;;;;;5015908;28;20479;-84
2022/06/22 12:17:30;;;;;;;1.20;1.00;;;25.60;61.90;;;;;;5016005;28;20938;-84
2022/06/22 12:20:09;;;;;;;1.20;0.90;;;25.60;61.90;;;;;;5015850;28;20530;-84
2022/06/22 12:22:49;;;;;;;1.00;0.90;;;25.60;61.90;;;;;;5015872;28;20444;-85
2022/06/22 12:25:39;;;;;;;1.00;0.90;;;25.60;61.90;;;;;;5015768;28;20851;-85
2022/06/22 12:28:20;;;;;;;1.20;1.00;;;25.60;61.90;;;;;;5015563;28;20478;-85
2022/06/22 12:30:59;;;;;;;1.07;0.97;;;25.60;61.90;;;;;;5015847;28;20439;-85
2022/06/22 12:33:30;;;;;;;0.90;0.80;;;25.60;61.90;;;;;;5015556;28;20837;-85
2022/06/22 12:36:04;;;;;;;1.67;0.97;;;25.60;61.90;;;;;;5015642;28;20478;-85
2022/06/22 12:38:36;;;;;;;1.00;0.80;;;25.70;62.00;;;;;;5015522;28;20450;-85
2022/06/22 12:41:12;;;;;;;1.17;1.07;;;25.60;61.90;;;;;;5015730;28;20444;-85
2022/06/22 12:44:00;;;;;;;1.20;1.00;;;25.70;62.00;;;;;;5015396;28;20447;-85
2022/06/22 12:46:49;;;;;;;1.07;0.97;;;25.70;61.90;;;;;;5015350;28;20498;-85
2022/06/22 12:49:44;;;;;;;1.00;0.80;;;25.70;62.00;;;;;;5015270;28;20474;-85
2022/06/22 12:52:18;;;;;;;1.13;1.03;;;25.60;61.90;;;;;;5015272;28;21026;-89
2022/06/22 12:54:49;;;;;;;1.10;1.00;;;25.60;61.90;;;;;;5015432;28;20443;-90
2022/06/22 12:57:20;;;;;;;1.40;1.00;;;25.60;62.00;;;;;;5015076;28;20444;-85
2022/06/22 12:59:54;;;;;;;1.00;0.90;;;25.70;62.00;;;;;;5015071;28;20447;-90
2022/06/22 13:02:27;;;;;;;1.03;0.93;;;25.70;62.00;;;;;;5015098;28;20440;-85
2022/06/22 13:04:59;;;;;;;1.00;0.80;;;25.70;62.00;;;;;;5014851;28;20458;-86
2022/06/22 13:07:28;;;;;;;1.43;1.33;;;25.70;62.00;;;;;;5015060;28;20450;-90
2022/06/22 13:09:55;;;;;;;1.00;0.90;;;25.70;62.00;;;;;;5014852;28;20439;-87
2022/06/22 13:12:31;;;;;;;1.30;1.13;;;25.70;62.00;;;;;;5014723;28;20483;-85
2022/06/22 13:15:04;;;;;;;1.10;1.00;;;25.70;62.00;;;;;;5013719;28;20474;-85
2022/06/22 13:17:38;;;;;;;1.10;0.90;;;25.70;62.00;;;;;;5014788;28;20858;-85
2022/06/22 13:20:34;;;;;;;1.00;0.90;;;25.70;61.90;;;;;;5014721;28;20446;-86
2022/06/22 13:23:08;;;;;;;1.13;1.03;;;25.70;61.90;;;;;;5014511;28;20915;-85
2022/06/22 13:25:40;;;;;;;1.63;1.00;;;25.70;62.00;;;;;;5014661;28;20443;-85
2022/06/22 13:28:17;;;;;;;1.10;1.00;;;25.70;62.00;;;;;;5014350;28;20985;-85
2022/06/22 13:30:50;;;;;;;1.73;0.90;;;25.70;62.00;;;;;;5014598;28;20993;-90
2022/06/22 13:33:23;;;;;;;1.10;1.00;;;25.70;62.00;;;;;;5014418;28;20815;-85
2022/06/22 13:35:58;;;;;;;1.70;0.90;;;25.70;62.00;;;;;;5014102;28;20870;-91
2022/06/22 13:38:56;;;;;;;1.03;0.93;;;25.70;62.00;;;;;;5014465;28;20491;-85
2022/06/22 13:41:35;;;;;;;1.10;1.00;;;25.70;61.80;;;;;;5014577;28;20813;-85
2022/06/22 13:44:35;;;;;;;1.10;1.00;;;25.70;61.90;;;;;;5014124;28;20539;-85
2022/06/22 13:47:20;;;;;;;1.17;1.07;;;25.70;61.90;;;;;;5014692;28;20439;-85
2022/06/22 13:50:14;;;;;;;1.10;0.90;;;25.70;61.90;;;;;;5014293;28;20440;-85
2022/06/22 13:52:44;;;;;;;1.20;1.10;;;25.70;62.00;;;;;;5014211;28;20479;-85
2022/06/22 13:55:30;;;;;;;1.27;0.90;;;25.70;62.00;;;;;;5014195;28;20443;-85
2022/06/22 13:58:00;;;;;;;1.00;0.90;;;25.70;61.90;;;;;;5014385;28;20846;-86
2022/06/22 14:00:31;;;;;;;1.10;1.00;;;25.70;62.00;;;;;;5014730;28;20443;-85
2022/06/22 14:03:06;;;;;;;1.10;1.00;;;25.70;62.00;;;;;;5014613;28;20443;-84
2022/06/22 14:05:39;;;;;;;1.10;0.90;;;25.70;62.00;;;;;;5014781;28;20446;-83
2022/06/22 14:08:17;;;;;;;1.10;1.00;;;25.70;62.00;;;;;;5014489;28;20443;-84
2022/06/22 14:10:50;;;;;;;1.10;1.00;;;25.80;62.10;;;;;;5014288;28;20443;-87